sensor_id;sensor_type;location;lat;lon;timestamp;P1;durP1;ratioP1;P2;durP2;ratioP2
55065;SDS011;40964;42.114;24.220;2024-02-28T00:01:27;25.75;;;10.77;;
55065;SDS011;40964;42.114;24.220;2024-02-28T00:03:52;23.77;;;10.32;;
55065;SDS011;40964;42.114;24.220;2024-02-28T00:06:18;24.48;;;10.23;;
55065;SDS011;40964;42.114;24.220;2024-02-28T00:08:43;22.55;;;10.65;;
55065;SDS011;40964;42.114;24.220;2024-02-28T00:11:09;24.90;;;10.82;;
55065;SDS011;40964;42.114;24.220;2024-02-28T00:13:35;28.67;;;11.32;;
55065;SDS011;40964;42.114;24.220;2024-02-28T00:16:00;31.65;;;11.07;;
55065;SDS011;40964;42.114;24.220;2024-02-28T00:18:26;23.02;;;9.93;;
55065;SDS011;40964;42.114;24.220;2024-02-28T00:20:51;23.65;;;9.45;;
55065;SDS011;40964;42.114;24.220;2024-02-28T00:23:19;21.20;;;9.93;;
55065;SDS011;40964;42.114;24.220;2024-02-28T00:25:44;21.95;;;9.65;;
55065;SDS011;40964;42.114;24.220;2024-02-28T00:28:10;19.20;;;9.70;;
55065;SDS011;40964;42.114;24.220;2024-02-28T00:30:35;20.85;;;9.25;;
55065;SDS011;40964;42.114;24.220;2024-02-28T00:33:01;21.38;;;8.88;;
55065;SDS011;40964;42.114;24.220;2024-02-28T00:35:26;20.45;;;8.48;;
55065;SDS011;40964;42.114;24.220;2024-02-28T00:37:53;19.50;;;9.00;;
55065;SDS011;40964;42.114;24.220;2024-02-28T00:40:18;20.00;;;8.15;;
55065;SDS011;40964;42.114;24.220;2024-02-28T00:42:44;25.83;;;11.07;;
55065;SDS011;40964;42.114;24.220;2024-02-28T00:45:10;28.77;;;11.35;;
55065;SDS011;40964;42.114;24.220;2024-02-28T00:47:35;25.58;;;11.52;;
55065;SDS011;40964;42.114;24.220;2024-02-28T00:50:01;39.05;;;14.75;;
55065;SDS011;40964;42.114;24.220;2024-02-28T00:52:28;33.67;;;12.52;;
55065;SDS011;40964;42.114;24.220;2024-02-28T00:54:54;31.65;;;15.32;;
55065;SDS011;40964;42.114;24.220;2024-02-28T00:57:20;30.15;;;15.13;;
55065;SDS011;40964;42.114;24.220;2024-02-28T00:59:45;37.88;;;15.75;;
55065;SDS011;40964;42.114;24.220;2024-02-28T01:02:11;34.60;;;13.35;;
55065;SDS011;40964;42.114;24.220;2024-02-28T01:04:36;33.72;;;14.35;;
55065;SDS011;40964;42.114;24.220;2024-02-28T01:07:02;57.03;;;23.13;;
55065;SDS011;40964;42.114;24.220;2024-02-28T01:09:28;33.10;;;15.55;;
55065;SDS011;40964;42.114;24.220;2024-02-28T01:11:53;33.50;;;13.52;;
55065;SDS011;40964;42.114;24.220;2024-02-28T01:14:19;29.60;;;12.70;;
55065;SDS011;40964;42.114;24.220;2024-02-28T01:16:44;30.23;;;12.70;;
55065;SDS011;40964;42.114;24.220;2024-02-28T01:19:10;33.10;;;13.70;;
55065;SDS011;40964;42.114;24.220;2024-02-28T01:21:35;32.10;;;13.27;;
55065;SDS011;40964;42.114;24.220;2024-02-28T01:24:01;35.78;;;14.57;;
55065;SDS011;40964;42.114;24.220;2024-02-28T01:26:26;47.38;;;19.02;;
55065;SDS011;40964;42.114;24.220;2024-02-28T01:28:51;38.70;;;16.02;;
55065;SDS011;40964;42.114;24.220;2024-02-28T01:31:17;37.15;;;14.65;;
55065;SDS011;40964;42.114;24.220;2024-02-28T01:33:43;27.85;;;12.88;;
55065;SDS011;40964;42.114;24.220;2024-02-28T01:36:08;27.10;;;12.30;;
55065;SDS011;40964;42.114;24.220;2024-02-28T01:38:34;34.75;;;13.10;;
55065;SDS011;40964;42.114;24.220;2024-02-28T01:40:59;26.73;;;12.57;;
55065;SDS011;40964;42.114;24.220;2024-02-28T01:43:25;30.50;;;12.75;;
55065;SDS011;40964;42.114;24.220;2024-02-28T01:45:50;30.15;;;12.85;;
55065;SDS011;40964;42.114;24.220;2024-02-28T01:48:16;30.23;;;12.82;;
55065;SDS011;40964;42.114;24.220;2024-02-28T01:50:41;30.02;;;13.70;;
55065;SDS011;40964;42.114;24.220;2024-02-28T01:53:08;30.55;;;13.43;;
55065;SDS011;40964;42.114;24.220;2024-02-28T01:55:36;35.03;;;13.10;;
55065;SDS011;40964;42.114;24.220;2024-02-28T01:58:02;36.40;;;14.35;;
55065;SDS011;40964;42.114;24.220;2024-02-28T02:00:30;32.75;;;15.27;;
55065;SDS011;40964;42.114;24.220;2024-02-28T02:03:02;35.25;;;15.13;;
55065;SDS011;40964;42.114;24.220;2024-02-28T02:05:28;38.15;;;16.55;;
55065;SDS011;40964;42.114;24.220;2024-02-28T02:07:54;39.25;;;16.98;;
55065;SDS011;40964;42.114;24.220;2024-02-28T02:10:22;36.00;;;15.70;;
55065;SDS011;40964;42.114;24.220;2024-02-28T02:12:48;39.40;;;15.43;;
55065;SDS011;40964;42.114;24.220;2024-02-28T02:15:13;35.58;;;15.68;;
55065;SDS011;40964;42.114;24.220;2024-02-28T02:17:39;36.50;;;16.88;;
55065;SDS011;40964;42.114;24.220;2024-02-28T02:20:04;39.45;;;17.92;;
55065;SDS011;40964;42.114;24.220;2024-02-28T02:22:33;33.38;;;15.40;;
55065;SDS011;40964;42.114;24.220;2024-02-28T02:25:02;37.70;;;15.07;;
55065;SDS011;40964;42.114;24.220;2024-02-28T02:27:28;34.03;;;15.20;;
55065;SDS011;40964;42.114;24.220;2024-02-28T02:29:53;35.55;;;15.02;;
55065;SDS011;40964;42.114;24.220;2024-02-28T02:32:19;36.78;;;15.63;;
55065;SDS011;40964;42.114;24.220;2024-02-28T02:34:44;34.05;;;15.38;;
55065;SDS011;40964;42.114;24.220;2024-02-28T02:37:10;39.70;;;15.73;;
55065;SDS011;40964;42.114;24.220;2024-02-28T02:39:36;34.45;;;15.63;;
55065;SDS011;40964;42.114;24.220;2024-02-28T02:42:01;33.33;;;16.10;;
55065;SDS011;40964;42.114;24.220;2024-02-28T02:44:27;38.67;;;15.70;;
55065;SDS011;40964;42.114;24.220;2024-02-28T02:46:52;38.60;;;15.88;;
55065;SDS011;40964;42.114;24.220;2024-02-28T02:49:17;33.70;;;15.60;;
55065;SDS011;40964;42.114;24.220;2024-02-28T02:51:44;31.73;;;14.90;;
55065;SDS011;40964;42.114;24.220;2024-02-28T02:54:09;29.25;;;14.00;;
55065;SDS011;40964;42.114;24.220;2024-02-28T02:56:35;26.63;;;13.45;;
55065;SDS011;40964;42.114;24.220;2024-02-28T02:59:01;37.03;;;14.55;;
55065;SDS011;40964;42.114;24.220;2024-02-28T03:01:26;32.53;;;15.18;;
55065;SDS011;40964;42.114;24.220;2024-02-28T03:03:52;37.78;;;15.25;;
55065;SDS011;40964;42.114;24.220;2024-02-28T03:06:17;32.38;;;14.02;;
55065;SDS011;40964;42.114;24.220;2024-02-28T03:08:43;34.03;;;14.35;;
55065;SDS011;40964;42.114;24.220;2024-02-28T03:11:08;31.13;;;13.93;;
55065;SDS011;40964;42.114;24.220;2024-02-28T03:13:34;32.85;;;14.32;;
55065;SDS011;40964;42.114;24.220;2024-02-28T03:15:59;30.63;;;14.82;;
55065;SDS011;40964;42.114;24.220;2024-02-28T03:18:25;36.53;;;15.48;;
55065;SDS011;40964;42.114;24.220;2024-02-28T03:20:50;28.55;;;14.43;;
55065;SDS011;40964;42.114;24.220;2024-02-28T03:23:16;32.28;;;14.20;;
55065;SDS011;40964;42.114;24.220;2024-02-28T03:25:42;29.80;;;14.45;;
55065;SDS011;40964;42.114;24.220;2024-02-28T03:28:07;35.35;;;15.65;;
55065;SDS011;40964;42.114;24.220;2024-02-28T03:30:33;34.40;;;16.88;;
55065;SDS011;40964;42.114;24.220;2024-02-28T03:32:58;36.60;;;16.35;;
55065;SDS011;40964;42.114;24.220;2024-02-28T03:35:24;36.78;;;16.77;;
55065;SDS011;40964;42.114;24.220;2024-02-28T03:37:49;37.38;;;16.98;;
55065;SDS011;40964;42.114;24.220;2024-02-28T03:40:15;39.60;;;16.95;;
55065;SDS011;40964;42.114;24.220;2024-02-28T03:42:40;34.85;;;16.02;;
55065;SDS011;40964;42.114;24.220;2024-02-28T03:45:06;31.95;;;15.38;;
55065;SDS011;40964;42.114;24.220;2024-02-28T03:47:31;33.55;;;15.30;;
55065;SDS011;40964;42.114;24.220;2024-02-28T03:49:57;38.05;;;15.20;;
55065;SDS011;40964;42.114;24.220;2024-02-28T03:52:22;34.08;;;15.90;;
55065;SDS011;40964;42.114;24.220;2024-02-28T03:54:48;38.65;;;17.55;;
55065;SDS011;40964;42.114;24.220;2024-02-28T03:57:14;41.72;;;16.15;;
55065;SDS011;40964;42.114;24.220;2024-02-28T03:59:40;38.53;;;16.75;;
55065;SDS011;40964;42.114;24.220;2024-02-28T04:02:09;48.75;;;20.40;;
55065;SDS011;40964;42.114;24.220;2024-02-28T04:04:34;69.43;;;27.70;;
55065;SDS011;40964;42.114;24.220;2024-02-28T04:07:00;71.05;;;29.08;;
55065;SDS011;40964;42.114;24.220;2024-02-28T04:09:25;57.97;;;24.25;;
55065;SDS011;40964;42.114;24.220;2024-02-28T04:11:51;40.78;;;16.52;;
55065;SDS011;40964;42.114;24.220;2024-02-28T04:14:16;35.47;;;16.55;;
55065;SDS011;40964;42.114;24.220;2024-02-28T04:16:42;35.88;;;17.63;;
55065;SDS011;40964;42.114;24.220;2024-02-28T04:19:10;42.40;;;16.85;;
55065;SDS011;40964;42.114;24.220;2024-02-28T04:21:36;32.17;;;16.08;;
55065;SDS011;40964;42.114;24.220;2024-02-28T04:24:02;33.30;;;18.23;;
55065;SDS011;40964;42.114;24.220;2024-02-28T04:26:28;36.40;;;17.42;;
55065;SDS011;40964;42.114;24.220;2024-02-28T04:28:54;37.60;;;17.45;;
55065;SDS011;40964;42.114;24.220;2024-02-28T04:31:19;35.67;;;17.20;;
55065;SDS011;40964;42.114;24.220;2024-02-28T04:33:45;38.65;;;16.83;;
55065;SDS011;40964;42.114;24.220;2024-02-28T04:36:10;34.53;;;15.95;;
55065;SDS011;40964;42.114;24.220;2024-02-28T04:38:36;34.55;;;16.85;;
55065;SDS011;40964;42.114;24.220;2024-02-28T04:41:01;37.42;;;16.25;;
55065;SDS011;40964;42.114;24.220;2024-02-28T04:43:27;36.45;;;16.70;;
55065;SDS011;40964;42.114;24.220;2024-02-28T04:45:52;32.58;;;14.90;;
55065;SDS011;40964;42.114;24.220;2024-02-28T04:48:18;33.25;;;15.80;;
55065;SDS011;40964;42.114;24.220;2024-02-28T04:50:43;30.00;;;15.13;;
55065;SDS011;40964;42.114;24.220;2024-02-28T04:53:08;29.65;;;15.23;;
55065;SDS011;40964;42.114;24.220;2024-02-28T04:55:34;34.55;;;15.35;;
55065;SDS011;40964;42.114;24.220;2024-02-28T04:57:59;32.47;;;16.35;;
55065;SDS011;40964;42.114;24.220;2024-02-28T05:00:25;36.55;;;17.98;;
55065;SDS011;40964;42.114;24.220;2024-02-28T05:02:51;38.10;;;18.33;;
55065;SDS011;40964;42.114;24.220;2024-02-28T05:05:17;44.47;;;18.58;;
55065;SDS011;40964;42.114;24.220;2024-02-28T05:07:43;45.28;;;18.88;;
55065;SDS011;40964;42.114;24.220;2024-02-28T05:10:08;46.38;;;20.65;;
55065;SDS011;40964;42.114;24.220;2024-02-28T05:12:34;42.28;;;18.85;;
55065;SDS011;40964;42.114;24.220;2024-02-28T05:14:59;33.75;;;16.50;;
55065;SDS011;40964;42.114;24.220;2024-02-28T05:17:25;36.22;;;15.80;;
55065;SDS011;40964;42.114;24.220;2024-02-28T05:19:50;30.00;;;14.55;;
55065;SDS011;40964;42.114;24.220;2024-02-28T05:22:16;30.98;;;14.52;;
55065;SDS011;40964;42.114;24.220;2024-02-28T05:24:41;28.60;;;14.52;;
55065;SDS011;40964;42.114;24.220;2024-02-28T05:27:09;34.05;;;14.27;;
55065;SDS011;40964;42.114;24.220;2024-02-28T05:29:34;28.92;;;12.68;;
55065;SDS011;40964;42.114;24.220;2024-02-28T05:32:00;35.78;;;13.82;;
55065;SDS011;40964;42.114;24.220;2024-02-28T05:34:25;28.58;;;13.10;;
55065;SDS011;40964;42.114;24.220;2024-02-28T05:36:50;35.75;;;17.38;;
55065;SDS011;40964;42.114;24.220;2024-02-28T05:39:16;40.58;;;20.15;;
55065;SDS011;40964;42.114;24.220;2024-02-28T05:41:41;41.78;;;19.10;;
55065;SDS011;40964;42.114;24.220;2024-02-28T05:44:07;30.20;;;15.23;;
55065;SDS011;40964;42.114;24.220;2024-02-28T05:46:33;26.48;;;12.55;;
55065;SDS011;40964;42.114;24.220;2024-02-28T05:48:59;34.78;;;12.90;;
55065;SDS011;40964;42.114;24.220;2024-02-28T05:51:24;26.55;;;12.80;;
55065;SDS011;40964;42.114;24.220;2024-02-28T05:53:50;27.58;;;14.00;;
55065;SDS011;40964;42.114;24.220;2024-02-28T05:56:16;42.30;;;19.45;;
55065;SDS011;40964;42.114;24.220;2024-02-28T05:58:44;41.25;;;19.50;;
55065;SDS011;40964;42.114;24.220;2024-02-28T06:01:11;40.92;;;19.58;;
55065;SDS011;40964;42.114;24.220;2024-02-28T06:03:38;42.53;;;20.17;;
55065;SDS011;40964;42.114;24.220;2024-02-28T06:06:03;46.05;;;20.35;;
55065;SDS011;40964;42.114;24.220;2024-02-28T06:08:33;45.03;;;20.92;;
55065;SDS011;40964;42.114;24.220;2024-02-28T06:10:59;45.05;;;20.08;;
55065;SDS011;40964;42.114;24.220;2024-02-28T06:13:28;46.03;;;20.33;;
55065;SDS011;40964;42.114;24.220;2024-02-28T06:15:54;42.13;;;21.05;;
55065;SDS011;40964;42.114;24.220;2024-02-28T06:18:20;46.97;;;20.63;;
55065;SDS011;40964;42.114;24.220;2024-02-28T06:20:48;42.58;;;19.15;;
55065;SDS011;40964;42.114;24.220;2024-02-28T06:23:15;42.75;;;19.60;;
55065;SDS011;40964;42.114;24.220;2024-02-28T06:25:40;42.78;;;18.92;;
55065;SDS011;40964;42.114;24.220;2024-02-28T06:28:08;46.15;;;18.58;;
55065;SDS011;40964;42.114;24.220;2024-02-28T06:30:35;44.60;;;18.20;;
55065;SDS011;40964;42.114;24.220;2024-02-28T06:33:00;44.95;;;18.85;;
55065;SDS011;40964;42.114;24.220;2024-02-28T06:35:26;44.90;;;19.00;;
55065;SDS011;40964;42.114;24.220;2024-02-28T06:37:52;43.83;;;19.63;;
55065;SDS011;40964;42.114;24.220;2024-02-28T06:40:18;40.03;;;19.27;;
55065;SDS011;40964;42.114;24.220;2024-02-28T06:42:44;43.65;;;18.60;;
55065;SDS011;40964;42.114;24.220;2024-02-28T06:45:09;45.13;;;18.50;;
55065;SDS011;40964;42.114;24.220;2024-02-28T06:47:35;41.90;;;18.50;;
55065;SDS011;40964;42.114;24.220;2024-02-28T06:50:02;45.25;;;19.00;;
55065;SDS011;40964;42.114;24.220;2024-02-28T06:52:29;46.45;;;19.55;;
55065;SDS011;40964;42.114;24.220;2024-02-28T06:54:55;50.67;;;20.70;;
55065;SDS011;40964;42.114;24.220;2024-02-28T06:57:20;40.30;;;18.08;;
55065;SDS011;40964;42.114;24.220;2024-02-28T06:59:46;44.78;;;18.20;;
55065;SDS011;40964;42.114;24.220;2024-02-28T07:02:11;38.60;;;17.05;;
55065;SDS011;40964;42.114;24.220;2024-02-28T07:04:41;38.25;;;17.70;;
55065;SDS011;40964;42.114;24.220;2024-02-28T07:07:07;46.15;;;17.98;;
55065;SDS011;40964;42.114;24.220;2024-02-28T07:09:32;43.75;;;16.80;;
55065;SDS011;40964;42.114;24.220;2024-02-28T07:11:58;39.33;;;15.43;;
55065;SDS011;40964;42.114;24.220;2024-02-28T07:14:24;45.60;;;17.48;;
55065;SDS011;40964;42.114;24.220;2024-02-28T07:16:49;38.58;;;16.55;;
55065;SDS011;40964;42.114;24.220;2024-02-28T07:19:17;48.78;;;17.70;;
55065;SDS011;40964;42.114;24.220;2024-02-28T07:21:43;38.08;;;16.63;;
55065;SDS011;40964;42.114;24.220;2024-02-28T07:24:09;37.30;;;15.60;;
55065;SDS011;40964;42.114;24.220;2024-02-28T07:26:34;40.45;;;16.63;;
55065;SDS011;40964;42.114;24.220;2024-02-28T07:29:00;31.50;;;13.88;;
55065;SDS011;40964;42.114;24.220;2024-02-28T07:31:25;34.42;;;14.75;;
55065;SDS011;40964;42.114;24.220;2024-02-28T07:33:51;30.70;;;13.93;;
55065;SDS011;40964;42.114;24.220;2024-02-28T07:36:16;34.90;;;15.00;;
55065;SDS011;40964;42.114;24.220;2024-02-28T07:38:42;29.50;;;14.00;;
55065;SDS011;40964;42.114;24.220;2024-02-28T07:41:07;42.33;;;14.82;;
55065;SDS011;40964;42.114;24.220;2024-02-28T07:43:33;34.65;;;14.32;;
55065;SDS011;40964;42.114;24.220;2024-02-28T07:46:06;29.58;;;14.90;;
55065;SDS011;40964;42.114;24.220;2024-02-28T07:48:33;38.70;;;14.07;;
55065;SDS011;40964;42.114;24.220;2024-02-28T07:50:58;36.25;;;14.23;;
55065;SDS011;40964;42.114;24.220;2024-02-28T07:53:23;35.42;;;15.23;;
55065;SDS011;40964;42.114;24.220;2024-02-28T07:55:49;32.47;;;15.13;;
55065;SDS011;40964;42.114;24.220;2024-02-28T07:58:15;33.53;;;14.27;;
55065;SDS011;40964;42.114;24.220;2024-02-28T08:00:41;33.10;;;13.90;;
55065;SDS011;40964;42.114;24.220;2024-02-28T08:03:08;33.40;;;13.75;;
55065;SDS011;40964;42.114;24.220;2024-02-28T08:05:34;46.83;;;14.77;;
55065;SDS011;40964;42.114;24.220;2024-02-28T08:08:04;37.15;;;14.25;;
55065;SDS011;40964;42.114;24.220;2024-02-28T08:10:30;32.47;;;14.60;;
55065;SDS011;40964;42.114;24.220;2024-02-28T08:12:56;31.13;;;13.52;;
55065;SDS011;40964;42.114;24.220;2024-02-28T08:15:21;38.20;;;14.30;;
55065;SDS011;40964;42.114;24.220;2024-02-28T08:17:47;30.85;;;13.45;;
55065;SDS011;40964;42.114;24.220;2024-02-28T08:20:12;33.88;;;14.32;;
55065;SDS011;40964;42.114;24.220;2024-02-28T08:22:38;40.50;;;14.32;;
55065;SDS011;40964;42.114;24.220;2024-02-28T08:25:04;28.75;;;13.27;;
55065;SDS011;40964;42.114;24.220;2024-02-28T08:27:30;33.83;;;13.77;;
55065;SDS011;40964;42.114;24.220;2024-02-28T08:29:55;33.33;;;14.05;;
55065;SDS011;40964;42.114;24.220;2024-02-28T08:32:21;32.47;;;13.73;;
55065;SDS011;40964;42.114;24.220;2024-02-28T08:34:47;31.80;;;12.73;;
55065;SDS011;40964;42.114;24.220;2024-02-28T08:37:13;32.25;;;13.50;;
55065;SDS011;40964;42.114;24.220;2024-02-28T08:39:38;30.35;;;14.02;;
55065;SDS011;40964;42.114;24.220;2024-02-28T08:42:04;32.42;;;14.45;;
55065;SDS011;40964;42.114;24.220;2024-02-28T08:44:30;31.10;;;12.60;;
55065;SDS011;40964;42.114;24.220;2024-02-28T08:46:55;26.90;;;12.88;;
55065;SDS011;40964;42.114;24.220;2024-02-28T08:49:21;31.50;;;13.02;;
55065;SDS011;40964;42.114;24.220;2024-02-28T08:51:46;32.03;;;12.90;;
55065;SDS011;40964;42.114;24.220;2024-02-28T08:54:12;32.72;;;12.40;;
55065;SDS011;40964;42.114;24.220;2024-02-28T08:56:37;32.22;;;12.93;;
55065;SDS011;40964;42.114;24.220;2024-02-28T08:59:03;30.55;;;12.73;;
55065;SDS011;40964;42.114;24.220;2024-02-28T09:01:28;27.20;;;12.13;;
55065;SDS011;40964;42.114;24.220;2024-02-28T09:03:54;37.05;;;13.23;;
55065;SDS011;40964;42.114;24.220;2024-02-28T09:09:07;31.50;;;13.07;;
55065;SDS011;40964;42.114;24.220;2024-02-28T09:11:32;31.33;;;13.15;;
55065;SDS011;40964;42.114;24.220;2024-02-28T09:13:58;26.85;;;12.63;;
55065;SDS011;40964;42.114;24.220;2024-02-28T09:16:24;29.08;;;13.40;;
55065;SDS011;40964;42.114;24.220;2024-02-28T09:18:50;28.80;;;14.18;;
55065;SDS011;40964;42.114;24.220;2024-02-28T09:21:15;33.90;;;13.60;;
55065;SDS011;40964;42.114;24.220;2024-02-28T09:23:41;34.60;;;13.95;;
55065;SDS011;40964;42.114;24.220;2024-02-28T09:26:06;33.20;;;12.98;;
55065;SDS011;40964;42.114;24.220;2024-02-28T09:28:32;36.50;;;14.38;;
55065;SDS011;40964;42.114;24.220;2024-02-28T09:30:58;37.25;;;13.82;;
55065;SDS011;40964;42.114;24.220;2024-02-28T09:33:23;29.08;;;12.25;;
55065;SDS011;40964;42.114;24.220;2024-02-28T09:35:49;32.08;;;13.68;;
55065;SDS011;40964;42.114;24.220;2024-02-28T09:38:14;29.35;;;12.38;;
55065;SDS011;40964;42.114;24.220;2024-02-28T09:40:40;31.15;;;13.75;;
55065;SDS011;40964;42.114;24.220;2024-02-28T09:43:07;29.63;;;13.68;;
55065;SDS011;40964;42.114;24.220;2024-02-28T09:45:39;31.30;;;13.55;;
55065;SDS011;40964;42.114;24.220;2024-02-28T09:48:05;32.58;;;13.27;;
55065;SDS011;40964;42.114;24.220;2024-02-28T09:50:34;37.72;;;13.70;;
55065;SDS011;40964;42.114;24.220;2024-02-28T09:53:00;32.80;;;13.95;;
55065;SDS011;40964;42.114;24.220;2024-02-28T09:55:25;33.65;;;14.82;;
55065;SDS011;40964;42.114;24.220;2024-02-28T09:57:51;28.05;;;13.63;;
55065;SDS011;40964;42.114;24.220;2024-02-28T10:00:20;27.55;;;12.52;;
55065;SDS011;40964;42.114;24.220;2024-02-28T10:02:47;30.67;;;12.00;;
55065;SDS011;40964;42.114;24.220;2024-02-28T10:05:16;33.88;;;13.80;;
55065;SDS011;40964;42.114;24.220;2024-02-28T10:07:44;35.42;;;13.88;;
55065;SDS011;40964;42.114;24.220;2024-02-28T10:10:10;31.05;;;12.70;;
55065;SDS011;40964;42.114;24.220;2024-02-28T10:12:40;31.83;;;13.43;;
55065;SDS011;40964;42.114;24.220;2024-02-28T10:15:06;35.28;;;14.15;;
55065;SDS011;40964;42.114;24.220;2024-02-28T10:17:31;31.90;;;13.30;;
55065;SDS011;40964;42.114;24.220;2024-02-28T10:19:58;31.95;;;13.27;;
55065;SDS011;40964;42.114;24.220;2024-02-28T10:22:24;30.70;;;14.02;;
55065;SDS011;40964;42.114;24.220;2024-02-28T10:24:56;33.33;;;12.95;;
55065;SDS011;40964;42.114;24.220;2024-02-28T10:27:22;33.10;;;14.07;;
55065;SDS011;40964;42.114;24.220;2024-02-28T10:29:48;30.00;;;14.02;;
55065;SDS011;40964;42.114;24.220;2024-02-28T10:32:13;30.85;;;14.20;;
55065;SDS011;40964;42.114;24.220;2024-02-28T10:34:39;30.35;;;12.75;;
55065;SDS011;40964;42.114;24.220;2024-02-28T10:37:06;35.95;;;14.13;;
55065;SDS011;40964;42.114;24.220;2024-02-28T10:39:32;33.35;;;13.50;;
55065;SDS011;40964;42.114;24.220;2024-02-28T10:41:59;32.33;;;13.85;;
55065;SDS011;40964;42.114;24.220;2024-02-28T10:44:26;33.97;;;12.95;;
55065;SDS011;40964;42.114;24.220;2024-02-28T10:46:53;30.95;;;12.98;;
55065;SDS011;40964;42.114;24.220;2024-02-28T10:49:19;33.13;;;13.45;;
55065;SDS011;40964;42.114;24.220;2024-02-28T10:51:48;34.72;;;13.80;;
55065;SDS011;40964;42.114;24.220;2024-02-28T10:54:14;26.98;;;13.40;;
55065;SDS011;40964;42.114;24.220;2024-02-28T10:56:41;42.95;;;15.85;;
55065;SDS011;40964;42.114;24.220;2024-02-28T10:59:08;30.75;;;13.45;;
55065;SDS011;40964;42.114;24.220;2024-02-28T11:01:35;31.02;;;13.30;;
55065;SDS011;40964;42.114;24.220;2024-02-28T11:04:02;28.08;;;13.07;;
55065;SDS011;40964;42.114;24.220;2024-02-28T11:06:29;34.13;;;13.10;;
55065;SDS011;40964;42.114;24.220;2024-02-28T11:08:54;25.65;;;12.50;;
55065;SDS011;40964;42.114;24.220;2024-02-28T11:11:21;26.48;;;12.40;;
55065;SDS011;40964;42.114;24.220;2024-02-28T11:13:54;32.60;;;12.95;;
55065;SDS011;40964;42.114;24.220;2024-02-28T11:16:30;34.28;;;13.10;;
55065;SDS011;40964;42.114;24.220;2024-02-28T11:18:57;29.48;;;15.43;;
55065;SDS011;40964;42.114;24.220;2024-02-28T11:21:23;31.05;;;13.82;;
55065;SDS011;40964;42.114;24.220;2024-02-28T11:23:51;31.50;;;12.90;;
55065;SDS011;40964;42.114;24.220;2024-02-28T11:26:16;31.27;;;12.95;;
55065;SDS011;40964;42.114;24.220;2024-02-28T11:28:43;32.97;;;13.75;;
55065;SDS011;40964;42.114;24.220;2024-02-28T11:31:08;29.67;;;13.27;;
55065;SDS011;40964;42.114;24.220;2024-02-28T11:33:35;33.30;;;13.40;;
55065;SDS011;40964;42.114;24.220;2024-02-28T11:36:01;30.83;;;12.98;;
55065;SDS011;40964;42.114;24.220;2024-02-28T11:38:28;31.98;;;14.05;;
55065;SDS011;40964;42.114;24.220;2024-02-28T11:40:54;28.67;;;12.98;;
55065;SDS011;40964;42.114;24.220;2024-02-28T11:43:22;33.80;;;14.85;;
55065;SDS011;40964;42.114;24.220;2024-02-28T11:45:48;30.83;;;12.13;;
55065;SDS011;40964;42.114;24.220;2024-02-28T11:48:13;30.77;;;13.90;;
55065;SDS011;40964;42.114;24.220;2024-02-28T11:50:39;36.95;;;13.52;;
55065;SDS011;40964;42.114;24.220;2024-02-28T11:53:08;34.85;;;13.85;;
55065;SDS011;40964;42.114;24.220;2024-02-28T11:55:34;34.50;;;14.68;;
55065;SDS011;40964;42.114;24.220;2024-02-28T11:58:00;31.33;;;12.88;;
55065;SDS011;40964;42.114;24.220;2024-02-28T12:00:26;32.72;;;12.30;;
55065;SDS011;40964;42.114;24.220;2024-02-28T12:02:51;26.42;;;11.95;;
55065;SDS011;40964;42.114;24.220;2024-02-28T12:05:19;26.77;;;11.50;;
55065;SDS011;40964;42.114;24.220;2024-02-28T12:07:45;33.05;;;13.00;;
55065;SDS011;40964;42.114;24.220;2024-02-28T12:10:10;28.20;;;11.60;;
55065;SDS011;40964;42.114;24.220;2024-02-28T12:12:36;26.00;;;12.40;;
55065;SDS011;40964;42.114;24.220;2024-02-28T12:15:03;24.05;;;11.65;;
55065;SDS011;40964;42.114;24.220;2024-02-28T12:17:30;27.63;;;11.77;;
55065;SDS011;40964;42.114;24.220;2024-02-28T12:19:58;30.73;;;12.00;;
55065;SDS011;40964;42.114;24.220;2024-02-28T12:22:25;26.85;;;11.98;;
55065;SDS011;40964;42.114;24.220;2024-02-28T12:24:50;25.10;;;11.65;;
55065;SDS011;40964;42.114;24.220;2024-02-28T12:27:16;27.70;;;11.90;;
55065;SDS011;40964;42.114;24.220;2024-02-28T12:29:42;31.13;;;11.73;;
55065;SDS011;40964;42.114;24.220;2024-02-28T12:32:07;25.70;;;11.60;;
55065;SDS011;40964;42.114;24.220;2024-02-28T12:34:34;25.60;;;11.43;;
55065;SDS011;40964;42.114;24.220;2024-02-28T12:36:59;25.52;;;10.90;;
55065;SDS011;40964;42.114;24.220;2024-02-28T12:39:25;26.40;;;11.77;;
55065;SDS011;40964;42.114;24.220;2024-02-28T12:41:50;24.35;;;11.30;;
55065;SDS011;40964;42.114;24.220;2024-02-28T12:44:16;24.60;;;11.30;;
55065;SDS011;40964;42.114;24.220;2024-02-28T12:46:41;30.35;;;12.05;;
55065;SDS011;40964;42.114;24.220;2024-02-28T12:49:07;27.90;;;12.30;;
55065;SDS011;40964;42.114;24.220;2024-02-28T12:51:42;34.90;;;13.25;;
55065;SDS011;40964;42.114;24.220;2024-02-28T12:54:10;28.65;;;13.13;;
55065;SDS011;40964;42.114;24.220;2024-02-28T12:56:37;34.20;;;13.80;;
55065;SDS011;40964;42.114;24.220;2024-02-28T12:59:03;26.25;;;12.00;;
55065;SDS011;40964;42.114;24.220;2024-02-28T13:01:29;32.42;;;12.85;;
55065;SDS011;40964;42.114;24.220;2024-02-28T13:03:55;27.48;;;13.57;;
55065;SDS011;40964;42.114;24.220;2024-02-28T13:06:22;26.25;;;12.07;;
55065;SDS011;40964;42.114;24.220;2024-02-28T13:08:47;29.50;;;13.43;;
55065;SDS011;40964;42.114;24.220;2024-02-28T13:11:20;30.45;;;13.15;;
55065;SDS011;40964;42.114;24.220;2024-02-28T13:13:47;26.98;;;12.23;;
55065;SDS011;40964;42.114;24.220;2024-02-28T13:16:13;28.40;;;12.15;;
55065;SDS011;40964;42.114;24.220;2024-02-28T13:18:38;25.33;;;12.32;;
55065;SDS011;40964;42.114;24.220;2024-02-28T13:21:04;30.70;;;12.98;;
55065;SDS011;40964;42.114;24.220;2024-02-28T13:23:30;31.83;;;13.10;;
55065;SDS011;40964;42.114;24.220;2024-02-28T13:25:56;36.47;;;16.88;;
55065;SDS011;40964;42.114;24.220;2024-02-28T13:28:22;27.88;;;12.02;;
55065;SDS011;40964;42.114;24.220;2024-02-28T13:30:55;25.17;;;12.40;;
55065;SDS011;40964;42.114;24.220;2024-02-28T13:33:21;25.83;;;11.95;;
55065;SDS011;40964;42.114;24.220;2024-02-28T13:35:47;27.33;;;11.48;;
55065;SDS011;40964;42.114;24.220;2024-02-28T13:38:12;22.70;;;12.07;;
55065;SDS011;40964;42.114;24.220;2024-02-28T13:40:38;32.75;;;12.02;;
55065;SDS011;40964;42.114;24.220;2024-02-28T13:43:04;28.48;;;12.23;;
55065;SDS011;40964;42.114;24.220;2024-02-28T13:45:29;26.48;;;12.10;;
55065;SDS011;40964;42.114;24.220;2024-02-28T13:47:55;35.40;;;14.48;;
55065;SDS011;40964;42.114;24.220;2024-02-28T13:50:20;25.33;;;10.88;;
55065;SDS011;40964;42.114;24.220;2024-02-28T13:52:46;26.70;;;12.73;;
55065;SDS011;40964;42.114;24.220;2024-02-28T13:55:11;28.20;;;12.18;;
55065;SDS011;40964;42.114;24.220;2024-02-28T13:57:36;42.42;;;17.33;;
55065;SDS011;40964;42.114;24.220;2024-02-28T14:00:02;29.08;;;12.30;;
55065;SDS011;40964;42.114;24.220;2024-02-28T14:02:31;26.33;;;12.40;;
55065;SDS011;40964;42.114;24.220;2024-02-28T14:04:57;25.17;;;11.25;;